createdAt,value
2023-02-18T00:00:34.386Z,4.45
2023-02-18T00:03:01.068Z,5.50
2023-02-18T00:05:31.357Z,4.70
2023-02-18T00:07:58.006Z,4.47
2023-02-18T00:10:27.078Z,4.28
2023-02-18T00:12:56.364Z,4.35
2023-02-18T00:15:23.035Z,4.88
2023-02-18T00:17:49.813Z,4.97
2023-02-18T00:20:16.520Z,4.82
2023-02-18T00:22:43.285Z,4.70
2023-02-18T00:25:10.030Z,5.05
2023-02-18T00:27:36.703Z,5.03
2023-02-18T00:30:04.053Z,5.18
2023-02-18T00:32:30.716Z,4.70
2023-02-18T00:34:57.466Z,5.22
2023-02-18T00:37:24.147Z,5.25
2023-02-18T00:39:50.870Z,4.93
2023-02-18T00:42:17.527Z,4.75
2023-02-18T00:44:44.242Z,4.60
2023-02-18T00:47:10.900Z,4.80
2023-02-18T00:49:37.697Z,5.28
2023-02-18T00:52:04.788Z,5.53
2023-02-18T00:54:31.519Z,4.88
2023-02-18T00:56:58.232Z,5.03
2023-02-18T00:59:24.914Z,4.85
2023-02-18T01:01:53.875Z,4.82
2023-02-18T01:04:20.595Z,5.57
2023-02-18T01:06:47.284Z,5.35
2023-02-18T01:09:13.934Z,5.07
2023-02-18T01:11:40.644Z,5.90
2023-02-18T01:14:07.329Z,5.80
2023-02-18T01:16:34.218Z,5.35
2023-02-18T01:19:00.944Z,6.32
2023-02-18T01:21:27.673Z,5.57
2023-02-18T01:23:54.306Z,5.75
2023-02-18T01:26:21.053Z,6.15
2023-02-18T01:28:48.258Z,5.90
2023-02-18T01:31:15.390Z,5.60
2023-02-18T01:33:42.642Z,6.30
2023-02-18T01:36:11.468Z,5.68
2023-02-18T01:38:38.853Z,5.78
2023-02-18T01:41:08.690Z,5.53
2023-02-18T01:43:36.057Z,5.30
2023-02-18T01:46:23.049Z,5.78
2023-02-18T01:48:58.062Z,5.97
2023-02-18T01:51:52.694Z,5.85
2023-02-18T01:54:36.287Z,5.35
2023-02-18T01:57:06.042Z,5.45
2023-02-18T01:59:52.670Z,5.95
2023-02-18T02:02:22.712Z,5.70
2023-02-18T02:04:52.209Z,5.72
2023-02-18T02:07:21.263Z,5.75
2023-02-18T02:09:51.132Z,5.88
2023-02-18T02:12:30.754Z,5.68
2023-02-18T02:15:32.649Z,6.00
2023-02-18T02:18:18.113Z,5.32
2023-02-18T02:21:09.047Z,5.57
2023-02-18T02:23:57.046Z,5.68
2023-02-18T02:26:45.674Z,5.60
2023-02-18T02:29:50.504Z,5.38
2023-02-18T02:32:32.307Z,6.03
2023-02-18T02:35:20.319Z,5.97
2023-02-18T02:38:03.665Z,5.60
2023-02-18T02:40:49.416Z,6.07
2023-02-18T02:43:33.381Z,7.22
2023-02-18T02:46:20.956Z,6.57
2023-02-18T02:48:59.457Z,6.15
2023-02-18T02:51:30.783Z,6.63
2023-02-18T02:54:29.404Z,6.40
2023-02-18T02:57:30.406Z,5.68
2023-02-18T03:00:01.797Z,6.40
2023-02-18T03:02:59.670Z,6.00
2023-02-18T03:05:53.836Z,5.85
2023-02-18T03:08:31.998Z,6.40
2023-02-18T03:11:06.684Z,5.60
2023-02-18T03:14:12.720Z,5.50
2023-02-18T03:16:53.673Z,5.57
2023-02-18T03:19:38.507Z,6.53
2023-02-18T03:22:18.553Z,6.47
2023-02-18T03:24:50.262Z,6.78
2023-02-18T03:27:49.584Z,6.32
2023-02-18T03:30:30.341Z,6.40
2023-02-18T03:33:03.048Z,6.50
2023-02-18T03:35:30.013Z,6.38
2023-02-18T03:38:07.094Z,7.20
2023-02-18T03:40:33.809Z,7.28
2023-02-18T03:43:00.542Z,6.63
2023-02-18T03:45:28.028Z,8.10
2023-02-18T03:47:54.760Z,7.50
2023-02-18T03:50:24.109Z,6.50
2023-02-18T03:52:50.908Z,7.28
2023-02-18T03:55:17.797Z,6.65
2023-02-18T03:57:44.431Z,6.43
2023-02-18T04:00:11.617Z,7.53
2023-02-18T04:02:40.649Z,7.38
2023-02-18T04:05:07.850Z,7.63
2023-02-18T04:07:35.052Z,7.63
2023-02-18T04:10:06.821Z,7.38
2023-02-18T04:12:33.548Z,7.75
2023-02-18T04:15:00.320Z,8.30
2023-02-18T04:17:27.028Z,7.55
2023-02-18T04:19:53.663Z,8.43
2023-02-18T04:22:20.339Z,8.43
2023-02-18T04:24:47.022Z,7.57
2023-02-18T04:27:13.688Z,8.50
2023-02-18T04:29:40.568Z,7.60
2023-02-18T04:32:07.368Z,7.75
2023-02-18T04:34:34.010Z,8.35
2023-02-18T04:37:00.845Z,8.07
2023-02-18T04:39:27.499Z,8.45
2023-02-18T04:41:54.242Z,8.55
2023-02-18T04:44:20.955Z,8.13
2023-02-18T04:46:47.805Z,8.10
2023-02-18T04:49:14.463Z,8.00
2023-02-18T04:51:41.145Z,8.05
2023-02-18T04:54:07.810Z,8.38
2023-02-18T04:56:34.494Z,7.28
2023-02-18T04:59:03.748Z,7.70
2023-02-18T05:01:30.628Z,7.55
2023-02-18T05:03:59.845Z,7.05
2023-02-18T05:06:26.518Z,7.05
2023-02-18T05:08:55.617Z,7.82
2023-02-18T05:11:24.440Z,6.35
2023-02-18T05:13:51.122Z,5.90
2023-02-18T05:16:17.981Z,7.28
2023-02-18T05:18:44.644Z,6.57
2023-02-18T05:21:13.855Z,7.18
2023-02-18T05:23:42.782Z,7.15
2023-02-18T05:26:09.818Z,6.32
2023-02-18T05:28:39.284Z,6.70
2023-02-18T05:31:08.454Z,6.55
2023-02-18T05:33:35.161Z,6.47
2023-02-18T05:36:04.321Z,6.38
2023-02-18T05:38:30.975Z,5.93
2023-02-18T05:40:57.605Z,6.03
2023-02-18T05:43:24.264Z,6.10
2023-02-18T05:45:51.011Z,6.55
2023-02-18T05:48:17.630Z,6.35
2023-02-18T05:50:44.441Z,5.55
2023-02-18T05:53:11.119Z,5.90
2023-02-18T05:55:38.983Z,6.28
2023-02-18T05:58:06.596Z,5.80
2023-02-18T06:00:33.599Z,5.25
2023-02-18T06:03:02.535Z,6.38
2023-02-18T06:05:29.232Z,5.57
2023-02-18T06:07:56.836Z,4.95
2023-02-18T06:10:23.625Z,5.20
2023-02-18T06:12:52.813Z,4.93
2023-02-18T06:15:19.512Z,4.60
2023-02-18T06:17:46.151Z,5.28
2023-02-18T06:20:15.333Z,4.38
2023-02-18T06:22:44.331Z,5.07
2023-02-18T06:25:13.467Z,4.95
2023-02-18T06:27:42.658Z,4.70
2023-02-18T06:30:12.348Z,5.03
2023-02-18T06:32:43.841Z,5.00
2023-02-18T06:35:13.000Z,4.90
2023-02-18T06:37:39.680Z,4.75
2023-02-18T06:40:07.221Z,4.43
2023-02-18T06:42:36.424Z,4.85
2023-02-18T06:45:03.199Z,4.97
2023-02-18T06:47:29.871Z,4.43
2023-02-18T06:49:56.542Z,4.47
2023-02-18T06:52:23.186Z,4.43
2023-02-18T06:54:49.899Z,4.50
2023-02-18T06:57:16.597Z,4.25
2023-02-18T06:59:43.474Z,5.25
2023-02-18T07:02:13.493Z,4.93
2023-02-18T07:04:40.160Z,4.45
2023-02-18T07:07:09.071Z,4.53
2023-02-18T07:09:35.658Z,4.80
2023-02-18T07:12:02.381Z,4.15
2023-02-18T07:14:29.118Z,4.18
2023-02-18T07:16:55.924Z,4.43
2023-02-18T07:19:22.556Z,4.50
2023-02-18T07:21:49.181Z,4.25
2023-02-18T07:24:15.870Z,3.65
2023-02-18T07:26:42.574Z,3.78
2023-02-18T07:29:11.656Z,4.03
2023-02-18T07:31:38.753Z,4.45
2023-02-18T07:34:07.801Z,4.25
2023-02-18T07:36:34.474Z,4.43
2023-02-18T07:39:01.162Z,4.18
2023-02-18T07:41:27.785Z,3.95
2023-02-18T07:43:54.466Z,5.18
2023-02-18T07:46:23.728Z,4.22
2023-02-18T07:48:50.371Z,4.13
2023-02-18T07:51:17.066Z,3.72
2023-02-18T07:53:43.679Z,4.35
2023-02-18T07:56:10.559Z,4.15
2023-02-18T07:58:38.741Z,4.05
2023-02-18T08:01:12.101Z,4.82
2023-02-18T08:03:39.117Z,4.13
2023-02-18T08:06:08.827Z,4.25
2023-02-18T08:08:40.342Z,4.28
2023-02-18T08:11:18.411Z,4.30
2023-02-18T08:13:47.219Z,4.32
2023-02-18T08:16:14.847Z,3.97
2023-02-18T08:18:44.203Z,4.13
2023-02-18T08:21:13.651Z,3.78
2023-02-18T08:23:40.949Z,3.83
2023-02-18T08:26:08.351Z,3.85
2023-02-18T08:28:35.293Z,3.70
2023-02-18T08:31:02.285Z,3.20
2023-02-18T08:33:29.424Z,3.40
2023-02-18T08:35:56.508Z,4.15
2023-02-18T08:38:24.452Z,3.47
2023-02-18T08:41:00.725Z,3.75
2023-02-18T08:43:27.348Z,3.58
2023-02-18T08:45:54.075Z,3.95
2023-02-18T08:48:20.856Z,3.70
2023-02-18T08:50:51.318Z,3.92
2023-02-18T08:53:18.538Z,3.78
2023-02-18T08:55:47.590Z,3.97
2023-02-18T08:58:14.272Z,3.63
2023-02-18T09:00:45.167Z,3.58
2023-02-18T09:03:15.433Z,3.90
2023-02-18T09:05:44.550Z,3.65
2023-02-18T09:08:11.286Z,3.83
2023-02-18T09:10:39.451Z,3.67
2023-02-18T09:13:06.335Z,3.83
2023-02-18T09:15:33.127Z,3.88
2023-02-18T09:17:59.884Z,3.63
2023-02-18T09:20:28.073Z,3.38
2023-02-18T09:22:54.760Z,3.70
2023-02-18T09:25:21.612Z,3.42
2023-02-18T09:27:48.365Z,3.15
2023-02-18T09:30:15.382Z,3.00
2023-02-18T09:32:42.083Z,3.45
2023-02-18T09:35:08.886Z,3.45
2023-02-18T09:37:35.640Z,3.67
2023-02-18T09:40:04.620Z,3.35
2023-02-18T09:42:34.827Z,3.20
2023-02-18T09:45:06.981Z,3.30
2023-02-18T09:47:39.009Z,3.22
2023-02-18T09:50:38.152Z,3.53
2023-02-18T09:53:05.285Z,3.13
2023-02-18T09:55:37.100Z,3.03
2023-02-18T09:58:13.151Z,2.53
2023-02-18T10:00:42.942Z,3.33
2023-02-18T10:03:19.000Z,2.70
2023-02-18T10:05:57.542Z,3.03
2023-02-18T10:08:46.348Z,2.88
2023-02-18T10:11:28.825Z,2.78
2023-02-18T10:13:56.510Z,2.90
2023-02-18T10:16:25.255Z,3.03
2023-02-18T10:18:59.312Z,3.35
2023-02-18T10:21:30.430Z,2.45
2023-02-18T10:24:04.998Z,2.42
2023-02-18T10:26:36.732Z,2.22
2023-02-18T10:29:04.004Z,2.10
2023-02-18T10:31:41.811Z,2.65
2023-02-18T10:34:22.909Z,2.10
2023-02-18T10:37:00.715Z,2.45
2023-02-18T10:39:47.849Z,3.08
2023-02-18T10:42:47.881Z,2.97
2023-02-18T10:45:25.035Z,3.00
2023-02-18T10:48:25.815Z,3.15
2023-02-18T10:50:53.144Z,3.05
2023-02-18T10:53:33.884Z,3.10
2023-02-18T10:56:00.875Z,2.80
2023-02-18T10:58:43.170Z,2.50
2023-02-18T11:01:20.695Z,2.80
2023-02-18T11:03:55.276Z,2.65
2023-02-18T11:06:33.585Z,2.63
2023-02-18T11:09:02.341Z,2.42
2023-02-18T11:11:32.233Z,2.85
2023-02-18T11:14:01.584Z,2.70
2023-02-18T11:16:47.314Z,2.40
2023-02-18T11:19:35.844Z,2.58
2023-02-18T11:22:20.311Z,2.25
2023-02-18T11:24:50.436Z,2.70
2023-02-18T11:27:48.488Z,2.88
2023-02-18T11:30:23.416Z,2.63
2023-02-18T11:32:54.873Z,2.78
2023-02-18T11:35:25.183Z,1.98
2023-02-18T11:37:53.189Z,2.00
2023-02-18T11:40:21.991Z,2.15
2023-02-18T11:42:48.767Z,2.20
2023-02-18T11:45:33.981Z,1.92
2023-02-18T11:48:06.434Z,2.17
2023-02-18T11:50:34.763Z,2.13
2023-02-18T11:53:21.418Z,2.20
2023-02-18T11:55:56.502Z,3.08
2023-02-18T11:58:23.194Z,2.45
2023-02-18T12:00:55.596Z,2.58
2023-02-18T12:03:50.425Z,1.80
2023-02-18T12:06:38.489Z,2.40
2023-02-18T12:09:20.369Z,2.30
2023-02-18T12:11:52.587Z,2.60
2023-02-18T12:14:23.548Z,1.98
2023-02-18T12:17:24.512Z,2.85
2023-02-18T12:19:54.485Z,3.17
2023-02-18T12:22:43.728Z,3.72
2023-02-18T12:25:41.419Z,5.70
2023-02-18T12:28:36.737Z,4.47
2023-02-18T12:31:17.945Z,4.78
2023-02-18T12:34:12.540Z,4.43
2023-02-18T12:36:58.453Z,4.30
2023-02-18T12:39:34.530Z,4.32
2023-02-18T12:42:13.673Z,3.38
2023-02-18T12:44:52.792Z,3.10
2023-02-18T12:47:30.918Z,3.60
2023-02-18T12:50:15.746Z,3.92
2023-02-18T12:52:54.444Z,3.75
2023-02-18T12:55:42.176Z,3.30
2023-02-18T12:58:38.927Z,3.55
2023-02-18T13:01:34.899Z,3.63
2023-02-18T13:04:25.990Z,3.47
2023-02-18T13:07:26.540Z,3.42
2023-02-18T13:10:21.031Z,3.65
2023-02-18T13:13:24.144Z,3.72
2023-02-18T13:15:57.750Z,2.95
2023-02-18T13:18:38.134Z,3.75
2023-02-18T13:21:07.659Z,3.63
2023-02-18T13:23:46.341Z,4.15
2023-02-18T13:26:16.268Z,3.60
2023-02-18T13:29:02.500Z,3.97
2023-02-18T13:32:12.192Z,4.68
2023-02-18T13:34:49.829Z,4.72
2023-02-18T13:37:53.986Z,4.47
2023-02-18T13:40:29.906Z,5.10
2023-02-18T13:43:19.359Z,4.88
2023-02-18T13:46:06.102Z,4.57
2023-02-18T13:48:46.824Z,4.93
2023-02-18T13:51:19.239Z,4.93
2023-02-18T13:53:52.188Z,4.13
2023-02-18T13:56:28.519Z,4.03
2023-02-18T13:59:12.872Z,4.55
2023-02-18T14:01:51.442Z,3.67
2023-02-18T14:04:43.223Z,4.25
2023-02-18T14:07:27.403Z,3.80
2023-02-18T14:12:30.787Z,4.25
2023-02-18T14:14:58.746Z,4.25
2023-02-18T14:17:40.798Z,4.63
2023-02-18T14:20:07.566Z,5.32
2023-02-18T14:22:47.951Z,4.45
2023-02-18T14:25:26.934Z,4.22
2023-02-18T14:27:54.594Z,4.78
2023-02-18T14:30:35.996Z,4.28
2023-02-18T14:33:05.057Z,4.53
2023-02-18T14:35:39.770Z,3.90
2023-02-18T14:38:33.873Z,4.65
2023-02-18T14:41:19.377Z,4.45
2023-02-18T14:43:52.357Z,4.10
2023-02-18T14:46:39.818Z,3.73
2023-02-18T14:49:09.370Z,4.65
2023-02-18T14:51:38.263Z,4.82
2023-02-18T14:54:07.334Z,4.35
2023-02-18T14:56:39.529Z,4.60
2023-02-18T14:59:11.506Z,4.68
2023-02-18T15:01:40.516Z,4.38
2023-02-18T15:04:09.394Z,5.20
2023-02-18T15:06:38.178Z,4.65
2023-02-18T15:09:23.848Z,4.93
2023-02-18T15:12:04.503Z,4.38
2023-02-18T15:14:36.895Z,4.95
2023-02-18T15:17:04.959Z,5.15
2023-02-18T15:19:41.844Z,4.47
2023-02-18T15:22:25.974Z,4.43
2023-02-18T15:27:29.516Z,4.80
2023-02-18T15:30:18.079Z,4.95
2023-02-18T15:32:56.625Z,5.00
2023-02-18T15:35:31.467Z,4.85
2023-02-18T15:38:02.224Z,4.78
2023-02-18T15:40:37.236Z,5.40
2023-02-18T15:43:06.080Z,5.10
2023-02-18T15:45:44.384Z,4.88
2023-02-18T15:48:43.597Z,4.95
2023-02-18T15:51:22.733Z,4.80
2023-02-18T15:53:53.265Z,4.72
2023-02-18T15:56:31.737Z,4.60
2023-02-18T15:59:30.496Z,4.60
2023-02-18T16:02:19.190Z,5.20
2023-02-18T16:04:51.134Z,5.13
2023-02-18T16:07:49.251Z,5.10
2023-02-18T16:10:21.349Z,4.95
2023-02-18T16:12:54.017Z,4.80
2023-02-18T16:15:30.938Z,5.40
2023-02-18T16:18:00.206Z,5.47
2023-02-18T16:20:36.031Z,5.35
2023-02-18T16:23:14.110Z,5.70
2023-02-18T16:25:47.186Z,4.65
2023-02-18T16:28:24.196Z,5.10
2023-02-18T16:30:50.891Z,5.45
2023-02-18T16:33:17.839Z,5.50
2023-02-18T16:35:50.606Z,5.07
2023-02-18T16:38:23.802Z,5.40
2023-02-18T16:40:54.322Z,5.25
2023-02-18T16:43:23.792Z,5.22
2023-02-18T16:45:52.904Z,5.07
2023-02-18T16:48:34.449Z,5.25
2023-02-18T16:51:07.237Z,5.55
2023-02-18T16:53:33.997Z,6.53
2023-02-18T16:56:01.677Z,5.43
2023-02-18T16:58:32.733Z,5.43
2023-02-18T17:01:01.761Z,5.53
2023-02-18T17:03:30.587Z,5.47
2023-02-18T17:05:57.273Z,5.28
2023-02-18T17:08:26.822Z,5.18
2023-02-18T17:10:56.725Z,5.28
2023-02-18T17:13:27.994Z,5.70
2023-02-18T17:15:57.676Z,5.65
2023-02-18T17:18:25.703Z,5.70
2023-02-18T17:20:53.616Z,6.00
2023-02-18T17:23:22.979Z,5.88
2023-02-18T17:25:52.540Z,5.97
2023-02-18T17:28:23.073Z,4.65
2023-02-18T17:30:56.643Z,5.20
2023-02-18T17:33:25.168Z,5.60
2023-02-18T17:35:51.838Z,6.10
2023-02-18T17:38:19.920Z,5.10
2023-02-18T17:40:50.583Z,5.65
2023-02-18T17:43:20.681Z,5.05
2023-02-18T17:45:51.154Z,5.60
2023-02-18T17:48:18.018Z,5.68
2023-02-18T17:50:44.909Z,5.78
2023-02-18T17:53:15.212Z,5.40
2023-02-18T17:55:43.471Z,5.28
2023-02-18T17:58:14.149Z,5.57
2023-02-18T18:00:47.252Z,5.85
2023-02-18T18:03:14.625Z,5.45
2023-02-18T18:05:48.629Z,5.65
2023-02-18T18:08:15.883Z,5.55
2023-02-18T18:10:50.544Z,5.93
2023-02-18T18:13:26.305Z,5.85
2023-02-18T18:15:53.335Z,6.15
2023-02-18T18:18:23.030Z,5.47
2023-02-18T18:20:58.587Z,6.07
2023-02-18T18:23:29.248Z,5.53
2023-02-18T18:25:57.683Z,6.05
2023-02-18T18:28:26.574Z,6.00
2023-02-18T18:30:57.594Z,6.32
2023-02-18T18:33:32.630Z,5.72
2023-02-18T18:36:00.405Z,5.88
2023-02-18T18:38:29.436Z,6.40
2023-02-18T18:40:56.754Z,5.97
2023-02-18T18:43:32.742Z,5.28
2023-02-18T18:46:00.287Z,6.03
2023-02-18T18:48:27.557Z,6.00
2023-02-18T18:50:54.857Z,6.20
2023-02-18T18:53:21.725Z,5.88
2023-02-18T18:55:49.267Z,5.70
2023-02-18T18:58:24.477Z,6.32
2023-02-18T19:00:54.129Z,5.72
2023-02-18T19:03:23.231Z,5.78
2023-02-18T19:05:51.053Z,6.35
2023-02-18T19:08:20.086Z,5.95
2023-02-18T19:10:50.287Z,6.22
2023-02-18T19:13:25.943Z,5.88
2023-02-18T19:16:19.766Z,6.30
2023-02-18T19:18:47.546Z,6.05
2023-02-18T19:21:14.420Z,6.43
2023-02-18T19:23:41.371Z,6.20
2023-02-18T19:26:08.495Z,6.35
2023-02-18T19:28:35.517Z,5.82
2023-02-18T19:31:08.475Z,5.80
2023-02-18T19:33:39.491Z,5.97
2023-02-18T19:36:11.068Z,6.05
2023-02-18T19:38:38.617Z,6.00
2023-02-18T19:41:16.800Z,6.00
2023-02-18T19:43:46.412Z,5.35
2023-02-18T19:46:15.944Z,5.85
2023-02-18T19:48:43.044Z,5.30
2023-02-18T19:51:10.532Z,5.75
2023-02-18T19:53:40.816Z,6.47
2023-02-18T19:56:07.873Z,5.50
2023-02-18T19:58:36.179Z,5.75
2023-02-18T20:01:03.831Z,6.20
2023-02-18T20:03:30.680Z,5.50
2023-02-18T20:06:02.497Z,5.80
2023-02-18T20:08:36.758Z,6.10
2023-02-18T20:11:05.730Z,6.05
2023-02-18T20:13:32.479Z,6.03
2023-02-18T20:15:59.276Z,6.18
2023-02-18T20:18:28.272Z,6.13
2023-02-18T20:20:57.448Z,5.65
2023-02-18T20:23:24.148Z,6.63
2023-02-18T20:25:53.457Z,6.03
2023-02-18T20:28:22.406Z,7.88
2023-02-18T20:30:49.159Z,6.15
2023-02-18T20:33:15.948Z,6.03
2023-02-18T20:35:42.648Z,6.50
2023-02-18T20:38:09.352Z,5.72
2023-02-18T20:40:38.230Z,5.55
2023-02-18T20:43:04.961Z,6.63
2023-02-18T20:45:32.692Z,6.47
2023-02-18T20:47:59.369Z,6.43
2023-02-18T20:50:26.058Z,6.00
2023-02-18T20:52:55.209Z,6.25
2023-02-18T20:55:24.300Z,5.65
2023-02-18T20:57:51.062Z,6.10
2023-02-18T21:00:17.834Z,6.38
2023-02-18T21:02:44.623Z,6.57
2023-02-18T21:05:11.367Z,5.88
2023-02-18T21:07:38.066Z,6.47
2023-02-18T21:10:05.105Z,6.32
2023-02-18T21:12:31.856Z,6.20
2023-02-18T21:14:58.537Z,6.00
2023-02-18T21:17:25.346Z,6.25
2023-02-18T21:19:52.009Z,6.03
2023-02-18T21:22:18.718Z,6.00
2023-02-18T21:24:45.485Z,6.13
2023-02-18T21:27:12.242Z,5.85
2023-02-18T21:29:41.092Z,5.43
2023-02-18T21:32:10.104Z,5.38
2023-02-18T21:34:37.147Z,4.93
2023-02-18T21:37:03.854Z,5.13
2023-02-18T21:39:30.581Z,5.00
2023-02-18T21:41:59.565Z,5.25
2023-02-18T21:44:40.219Z,5.53
2023-02-18T21:47:08.327Z,4.80
2023-02-18T21:49:35.044Z,5.15
2023-02-18T21:52:10.863Z,5.22
2023-02-18T21:54:44.878Z,4.88
2023-02-18T21:57:14.273Z,5.60
2023-02-18T21:59:46.162Z,5.40
2023-02-18T22:02:33.438Z,4.95
2023-02-18T22:05:02.786Z,4.88
2023-02-18T22:07:32.570Z,5.68
2023-02-18T22:10:01.357Z,4.93
2023-02-18T22:12:28.442Z,5.70
2023-02-18T22:14:55.146Z,4.95
2023-02-18T22:17:21.886Z,5.13
2023-02-18T22:19:48.781Z,5.07
2023-02-18T22:22:18.004Z,5.40
2023-02-18T22:24:44.644Z,5.45
2023-02-18T22:27:11.740Z,5.10
2023-02-18T22:29:38.628Z,5.32
2023-02-18T22:32:07.565Z,5.15
2023-02-18T22:34:34.334Z,5.07
2023-02-18T22:37:03.305Z,4.95
2023-02-18T22:39:30.076Z,5.32
2023-02-18T22:41:56.752Z,5.05
2023-02-18T22:44:24.214Z,5.78
2023-02-18T22:46:54.270Z,5.50
2023-02-18T22:49:21.073Z,4.72
2023-02-18T22:51:52.872Z,5.57
2023-02-18T22:54:20.734Z,5.35
2023-02-18T22:56:48.340Z,5.90
2023-02-18T22:59:19.602Z,5.57
2023-02-18T23:01:49.515Z,5.65
2023-02-18T23:04:20.896Z,5.60
2023-02-18T23:06:48.517Z,4.85
2023-02-18T23:09:21.733Z,5.28
2023-02-18T23:11:53.578Z,5.13
2023-02-18T23:14:23.890Z,5.35
2023-02-18T23:17:17.795Z,5.20
2023-02-18T23:19:49.338Z,5.32
2023-02-18T23:22:30.250Z,5.13
2023-02-18T23:24:57.289Z,5.20
2023-02-18T23:27:25.285Z,4.85
2023-02-18T23:29:52.689Z,5.70
2023-02-18T23:32:22.052Z,5.25
2023-02-18T23:34:54.030Z,4.65
2023-02-18T23:37:44.218Z,5.18
2023-02-18T23:40:13.573Z,4.65
2023-02-18T23:42:40.241Z,4.80
2023-02-18T23:45:07.274Z,4.85
2023-02-18T23:47:36.095Z,3.92
2023-02-18T23:50:02.768Z,4.10
2023-02-18T23:52:31.525Z,4.10
2023-02-18T23:54:58.186Z,4.35
2023-02-18T23:57:29.738Z,3.67
2023-02-18T23:59:58.548Z,3.90
